createdAt,value
2018-12-20T00:01:12.673Z,94.80
2018-12-20T00:03:41.075Z,94.70
2018-12-20T00:06:09.410Z,95.10
2018-12-20T00:08:37.751Z,94.80
2018-12-20T00:11:06.270Z,94.90
2018-12-20T00:13:34.606Z,94.90
2018-12-20T00:16:02.972Z,94.90
2018-12-20T00:18:31.573Z,95.00
2018-12-20T00:21:00.062Z,95.10
2018-12-20T00:23:28.578Z,95.10
2018-12-20T00:25:57.068Z,95.10
2018-12-20T00:28:25.427Z,95.10
2018-12-20T00:30:53.776Z,95.10
2018-12-20T00:33:22.316Z,95.10
2018-12-20T00:35:50.790Z,95.10
2018-12-20T00:38:19.249Z,95.10
2018-12-20T00:40:47.716Z,95.10
2018-12-20T00:43:16.224Z,95.20
2018-12-20T00:45:44.606Z,95.00
2018-12-20T00:48:13.042Z,95.00
2018-12-20T00:50:41.643Z,95.10
2018-12-20T00:53:10.062Z,95.00
2018-12-20T00:55:38.419Z,94.90
2018-12-20T00:58:06.884Z,95.00
2018-12-20T01:00:35.216Z,95.10
2018-12-20T01:03:04.251Z,95.10
2018-12-20T01:05:32.643Z,95.10
2018-12-20T01:08:00.984Z,95.10
2018-12-20T01:10:29.767Z,95.50
2018-12-20T01:12:58.398Z,95.20
2018-12-20T01:15:26.931Z,95.40
2018-12-20T01:17:55.972Z,95.20
2018-12-20T01:20:24.372Z,95.40
2018-12-20T01:22:52.832Z,95.40
2018-12-20T01:25:21.480Z,95.30
2018-12-20T01:27:56.231Z,95.30
2018-12-20T01:30:24.740Z,95.30
2018-12-20T01:32:53.120Z,95.20
2018-12-20T01:35:21.575Z,95.20
2018-12-20T01:37:50.089Z,95.40
2018-12-20T01:40:18.526Z,95.30
2018-12-20T01:42:47.064Z,95.20
2018-12-20T01:45:15.592Z,95.20
2018-12-20T01:47:43.930Z,95.20
2018-12-20T01:50:12.329Z,95.20
2018-12-20T01:52:41.676Z,95.20
2018-12-20T01:55:10.335Z,95.40
2018-12-20T01:57:38.863Z,95.30
2018-12-20T02:00:09.966Z,95.40
2018-12-20T02:02:38.393Z,95.50
2018-12-20T02:05:07.208Z,95.40
2018-12-20T02:07:35.677Z,95.30
2018-12-20T02:10:04.733Z,95.20
2018-12-20T02:12:33.330Z,95.30
2018-12-20T02:15:02.462Z,95.70
2018-12-20T02:17:30.865Z,95.30
2018-12-20T02:19:59.395Z,95.30
2018-12-20T02:22:27.843Z,95.40
2018-12-20T02:24:56.239Z,95.40
2018-12-20T02:27:24.769Z,95.30
2018-12-20T02:29:53.169Z,95.40
2018-12-20T02:32:21.869Z,95.30
2018-12-20T02:34:50.344Z,95.20
2018-12-20T02:37:18.887Z,95.30
2018-12-20T02:39:47.479Z,95.20
2018-12-20T02:42:16.018Z,95.30
2018-12-20T02:44:44.530Z,95.30
2018-12-20T02:47:12.925Z,95.30
2018-12-20T02:49:41.389Z,95.20
2018-12-20T02:52:09.924Z,95.30
2018-12-20T02:54:38.539Z,95.30
2018-12-20T02:57:07.070Z,95.30
2018-12-20T02:59:35.418Z,95.20
2018-12-20T03:02:03.906Z,95.20
2018-12-20T03:04:32.439Z,95.30
2018-12-20T03:07:00.954Z,95.30
2018-12-20T03:09:29.552Z,95.30
2018-12-20T03:11:57.955Z,95.20
2018-12-20T03:14:26.476Z,95.20
2018-12-20T03:16:55.262Z,95.30
2018-12-20T03:19:23.916Z,95.30
2018-12-20T03:21:52.493Z,95.20
2018-12-20T03:24:20.925Z,95.20
2018-12-20T03:26:49.351Z,95.20
2018-12-20T03:29:18.000Z,95.30
2018-12-20T03:31:47.063Z,95.60
2018-12-20T03:34:15.650Z,95.20
2018-12-20T03:36:44.293Z,95.30
2018-12-20T03:39:13.240Z,95.30
2018-12-20T03:41:41.823Z,95.20
2018-12-20T03:44:10.187Z,95.20
2018-12-20T03:46:38.512Z,95.20
2018-12-20T03:49:07.126Z,95.20
2018-12-20T03:51:35.657Z,95.20
2018-12-20T03:54:04.299Z,95.20
2018-12-20T03:56:32.790Z,95.20
2018-12-20T03:59:01.402Z,95.20
2018-12-20T04:01:29.859Z,95.20
2018-12-20T04:03:58.430Z,95.20
2018-12-20T04:06:27.057Z,95.20
2018-12-20T04:08:55.698Z,95.20
2018-12-20T04:11:24.384Z,95.20
2018-12-20T04:13:52.793Z,95.20
2018-12-20T04:16:21.286Z,95.20
2018-12-20T04:18:49.835Z,95.50
2018-12-20T04:21:18.699Z,95.20
2018-12-20T04:23:47.067Z,95.20
2018-12-20T04:26:15.565Z,95.20
2018-12-20T04:28:44.267Z,95.20
2018-12-20T04:31:13.468Z,95.20
2018-12-20T04:33:41.937Z,95.20
2018-12-20T04:36:11.311Z,95.20
2018-12-20T04:38:39.827Z,95.20
2018-12-20T04:41:08.487Z,95.20
2018-12-20T04:43:36.973Z,95.00
2018-12-20T04:46:05.569Z,95.10
2018-12-20T04:48:34.079Z,95.20
2018-12-20T04:51:02.477Z,95.20
2018-12-20T04:53:30.941Z,95.10
2018-12-20T04:55:59.783Z,95.20
2018-12-20T04:58:28.395Z,95.20
2018-12-20T05:00:57.005Z,95.20
2018-12-20T05:03:25.585Z,95.20
2018-12-20T05:05:54.320Z,95.10
2018-12-20T05:08:22.746Z,95.10
2018-12-20T05:10:51.197Z,94.90
2018-12-20T05:13:19.548Z,95.00
2018-12-20T05:15:55.825Z,95.00
2018-12-20T05:18:18.417Z,95.10
2018-12-20T05:20:46.749Z,95.10
2018-12-20T05:23:15.325Z,95.10
2018-12-20T05:25:43.834Z,95.10
2018-12-20T05:28:12.278Z,95.10
2018-12-20T05:30:40.737Z,95.10
2018-12-20T05:33:10.031Z,95.10
2018-12-20T05:35:38.434Z,95.10
2018-12-20T05:38:06.871Z,95.50
2018-12-20T05:40:35.229Z,95.10
2018-12-20T05:43:03.837Z,95.10
2018-12-20T05:45:32.450Z,95.00
2018-12-20T05:48:01.102Z,95.00
2018-12-20T05:50:29.601Z,95.10
2018-12-20T05:52:58.014Z,95.00
2018-12-20T05:55:26.434Z,95.10
2018-12-20T05:57:55.251Z,95.00
2018-12-20T06:00:23.910Z,95.10
2018-12-20T06:02:52.480Z,95.10
2018-12-20T06:05:21.114Z,95.00
2018-12-20T06:07:49.635Z,95.10
2018-12-20T06:10:18.270Z,95.00
2018-12-20T06:12:47.087Z,95.10
2018-12-20T06:15:15.549Z,95.10
2018-12-20T06:17:43.943Z,95.10
2018-12-20T06:20:12.407Z,94.90
2018-12-20T06:22:40.937Z,94.90
2018-12-20T06:25:09.326Z,95.00
2018-12-20T06:27:37.676Z,95.00
2018-12-20T06:30:06.410Z,94.80
2018-12-20T06:32:34.799Z,94.90
2018-12-20T06:35:03.563Z,94.90
2018-12-20T06:37:32.059Z,94.90
2018-12-20T06:40:00.413Z,95.00
2018-12-20T06:42:28.773Z,95.00
2018-12-20T06:44:57.098Z,95.10
2018-12-20T06:47:25.453Z,95.00
2018-12-20T06:49:53.904Z,95.00
2018-12-20T06:52:22.217Z,94.90
2018-12-20T06:54:50.684Z,94.90
2018-12-20T06:57:19.011Z,95.00
2018-12-20T06:59:47.413Z,94.90
2018-12-20T07:02:15.726Z,94.90
2018-12-20T07:04:44.110Z,94.80
2018-12-20T07:07:12.454Z,94.70
2018-12-20T07:09:40.885Z,94.80
2018-12-20T07:12:09.272Z,95.00
2018-12-20T07:14:37.680Z,94.50
2018-12-20T07:17:06.078Z,94.50
2018-12-20T07:19:34.414Z,94.70
2018-12-20T07:22:02.755Z,94.70
2018-12-20T07:24:31.130Z,94.70
2018-12-20T07:26:59.466Z,94.70
2018-12-20T07:29:27.848Z,94.80
2018-12-20T07:31:56.230Z,94.80
2018-12-20T07:34:24.630Z,94.70
2018-12-20T07:36:52.998Z,94.70
2018-12-20T07:39:21.386Z,94.70
2018-12-20T07:41:49.786Z,94.80
2018-12-20T07:44:18.122Z,94.70
2018-12-20T07:46:46.507Z,94.80
2018-12-20T07:49:14.998Z,94.80
2018-12-20T07:51:43.387Z,94.80
2018-12-20T07:54:11.734Z,94.70
2018-12-20T07:56:40.137Z,94.80
2018-12-20T07:59:09.079Z,94.70
2018-12-20T08:01:37.700Z,94.70
2018-12-20T08:04:06.041Z,94.70
2018-12-20T08:06:34.430Z,94.50
2018-12-20T08:09:03.190Z,94.40
2018-12-20T08:11:31.606Z,94.40
2018-12-20T08:14:00.088Z,94.30
2018-12-20T08:16:28.488Z,94.30
2018-12-20T08:18:56.810Z,94.30
2018-12-20T08:21:25.145Z,94.30
2018-12-20T08:23:53.533Z,94.30
2018-12-20T08:26:21.980Z,94.10
2018-12-20T08:28:50.386Z,94.20
2018-12-20T08:31:18.734Z,94.10
2018-12-20T08:33:47.120Z,94.00
2018-12-20T08:36:15.650Z,94.10
2018-12-20T08:38:44.026Z,94.10
2018-12-20T08:41:12.431Z,94.00
2018-12-20T08:43:40.828Z,94.10
2018-12-20T08:46:09.174Z,94.20
2018-12-20T08:48:37.587Z,94.00
2018-12-20T08:51:06.490Z,94.00
2018-12-20T08:53:34.812Z,94.10
2018-12-20T08:56:03.210Z,94.10
2018-12-20T08:58:31.560Z,94.10
2018-12-20T09:01:00.530Z,94.20
2018-12-20T09:03:28.933Z,94.20
2018-12-20T09:05:57.293Z,94.30
2018-12-20T09:08:25.636Z,94.30
2018-12-20T09:10:54.132Z,94.40
2018-12-20T09:13:22.470Z,94.50
2018-12-20T09:15:50.882Z,94.40
2018-12-20T09:18:19.208Z,94.60
2018-12-20T09:20:47.548Z,94.10
2018-12-20T09:23:15.970Z,94.10
2018-12-20T09:25:44.524Z,93.90
2018-12-20T09:28:12.890Z,93.70
2018-12-20T09:30:41.304Z,93.30
2018-12-20T09:33:09.654Z,93.40
2018-12-20T09:35:38.008Z,93.40
2018-12-20T09:38:06.392Z,93.50
2018-12-20T09:40:34.732Z,93.50
2018-12-20T09:43:03.146Z,93.50
2018-12-20T09:45:31.527Z,93.00
2018-12-20T09:48:06.362Z,93.20
2018-12-20T09:50:35.080Z,92.90
2018-12-20T09:53:03.542Z,93.20
2018-12-20T09:55:31.937Z,92.90
2018-12-20T09:58:00.260Z,93.00
2018-12-20T10:00:28.669Z,92.80
2018-12-20T10:02:57.017Z,92.70
2018-12-20T10:05:25.555Z,92.60
2018-12-20T10:07:53.900Z,92.60
2018-12-20T10:10:22.251Z,92.70
2018-12-20T10:12:50.762Z,92.70
2018-12-20T10:15:19.109Z,92.80
2018-12-20T10:17:47.499Z,92.90
2018-12-20T10:20:16.300Z,92.90
2018-12-20T10:22:44.682Z,92.70
2018-12-20T10:25:13.080Z,92.90
2018-12-20T10:27:41.426Z,93.00
2018-12-20T10:30:10.175Z,93.00
2018-12-20T10:32:38.551Z,93.00
2018-12-20T10:35:06.903Z,92.70
2018-12-20T10:37:35.336Z,92.70
2018-12-20T10:40:04.184Z,92.90
2018-12-20T10:42:32.582Z,93.00
2018-12-20T10:45:00.987Z,92.90
2018-12-20T10:47:29.499Z,92.90
2018-12-20T10:49:58.048Z,92.90
2018-12-20T10:52:27.339Z,92.90
2018-12-20T10:54:55.709Z,92.90
2018-12-20T10:57:24.143Z,93.00
2018-12-20T10:59:53.090Z,92.90
2018-12-20T11:02:27.165Z,92.90
2018-12-20T11:05:07.945Z,93.10
2018-12-20T11:07:41.571Z,93.00
2018-12-20T11:10:15.419Z,92.40
2018-12-20T11:12:47.875Z,92.30
2018-12-20T11:15:17.042Z,92.30
2018-12-20T11:17:45.420Z,92.30
2018-12-20T11:20:13.947Z,91.90
2018-12-20T11:22:42.406Z,92.00
2018-12-20T11:25:10.748Z,91.80
2018-12-20T11:27:39.141Z,91.90
2018-12-20T11:30:09.606Z,92.00
2018-12-20T11:32:38.019Z,92.10
2018-12-20T11:35:07.687Z,91.90
2018-12-20T11:37:36.065Z,92.00
2018-12-20T11:40:05.072Z,91.90
2018-12-20T11:42:33.447Z,91.80
2018-12-20T11:45:01.844Z,91.80
2018-12-20T11:47:30.197Z,91.50
2018-12-20T11:49:58.643Z,91.50
2018-12-20T11:52:26.965Z,91.70
2018-12-20T11:54:55.373Z,91.50
2018-12-20T11:57:23.786Z,91.50
2018-12-20T11:59:52.240Z,91.70
2018-12-20T12:02:24.369Z,91.80
2018-12-20T12:04:51.013Z,91.70
2018-12-20T12:07:19.552Z,91.80
2018-12-20T12:09:47.931Z,91.90
2018-12-20T12:12:16.394Z,91.80
2018-12-20T12:14:44.845Z,91.50
2018-12-20T12:17:13.173Z,91.40
2018-12-20T12:19:41.511Z,91.40
2018-12-20T12:22:09.998Z,91.30
2018-12-20T12:24:38.342Z,91.20
2018-12-20T12:27:06.689Z,91.00
2018-12-20T12:29:35.073Z,91.00
2018-12-20T12:32:03.535Z,91.00
2018-12-20T12:34:32.889Z,91.10
2018-12-20T12:37:01.288Z,90.70
2018-12-20T12:39:29.653Z,90.40
2018-12-20T12:41:57.995Z,90.80
2018-12-20T12:44:26.545Z,90.50
2018-12-20T12:46:54.898Z,90.80
2018-12-20T12:49:24.198Z,90.70
2018-12-20T12:51:53.429Z,90.80
2018-12-20T12:54:21.959Z,90.90
2018-12-20T12:59:25.071Z,91.00
2018-12-20T13:01:53.401Z,90.90
2018-12-20T13:04:21.761Z,90.90
2018-12-20T13:06:50.226Z,90.60
2018-12-20T13:09:18.577Z,90.80
2018-12-20T13:11:46.919Z,90.40
2018-12-20T13:14:15.315Z,90.40
2018-12-20T13:16:43.723Z,90.40
2018-12-20T13:19:12.108Z,90.30
2018-12-20T13:21:40.456Z,90.40
2018-12-20T13:24:08.808Z,90.40
2018-12-20T13:26:37.193Z,90.30
2018-12-20T13:29:05.605Z,90.30
2018-12-20T13:31:33.981Z,90.30
2018-12-20T13:34:02.442Z,90.00
2018-12-20T13:36:30.791Z,89.50
2018-12-20T13:38:59.294Z,89.50
2018-12-20T13:41:27.719Z,89.90
2018-12-20T13:43:56.171Z,89.60
2018-12-20T13:46:24.608Z,89.10
2018-12-20T13:48:52.958Z,89.20
2018-12-20T13:51:21.359Z,89.50
2018-12-20T13:53:49.719Z,89.70
2018-12-20T13:56:18.484Z,90.00
2018-12-20T13:58:46.947Z,90.30
2018-12-20T14:01:15.546Z,90.90
2018-12-20T14:03:43.914Z,90.70
2018-12-20T14:06:12.319Z,90.60
2018-12-20T14:08:40.762Z,90.50
2018-12-20T14:11:09.099Z,90.80
2018-12-20T14:13:37.509Z,90.60
2018-12-20T14:16:05.962Z,90.60
2018-12-20T14:18:34.342Z,90.50
2018-12-20T14:21:02.743Z,90.30
2018-12-20T14:23:31.138Z,90.30
2018-12-20T14:25:59.622Z,90.10
2018-12-20T14:28:27.997Z,90.10
2018-12-20T14:30:56.352Z,89.50
2018-12-20T14:33:24.691Z,89.70
2018-12-20T14:35:53.315Z,89.90
2018-12-20T14:38:21.882Z,90.00
2018-12-20T14:40:50.221Z,90.00
2018-12-20T14:43:18.606Z,89.50
2018-12-20T14:45:46.948Z,89.60
2018-12-20T14:48:19.564Z,90.00
2018-12-20T14:50:48.001Z,90.20
2018-12-20T14:53:16.363Z,90.70
2018-12-20T14:55:44.702Z,90.50
2018-12-20T14:58:13.074Z,90.30
2018-12-20T15:00:41.488Z,90.50
2018-12-20T15:03:09.844Z,90.50
2018-12-20T15:05:38.154Z,90.50
2018-12-20T15:08:06.582Z,90.40
2018-12-20T15:10:34.905Z,90.60
2018-12-20T15:13:03.599Z,90.70
2018-12-20T15:15:32.068Z,90.60
2018-12-20T15:18:00.412Z,90.70
2018-12-20T15:20:28.760Z,90.60
2018-12-20T15:22:57.158Z,90.60
2018-12-20T15:25:25.494Z,90.60
2018-12-20T15:27:53.898Z,90.60
2018-12-20T15:30:22.252Z,90.60
2018-12-20T15:32:50.605Z,90.60
2018-12-20T15:35:19.099Z,90.60
2018-12-20T15:37:47.470Z,90.50
2018-12-20T15:40:15.810Z,90.60
2018-12-20T15:42:44.246Z,90.50
2018-12-20T15:45:12.668Z,90.60
2018-12-20T15:47:41.092Z,90.80
2018-12-20T15:50:12.118Z,90.80
2018-12-20T15:52:40.555Z,90.90
2018-12-20T15:55:09.032Z,90.80
2018-12-20T15:57:37.466Z,91.00
2018-12-20T16:00:07.864Z,91.00
2018-12-20T16:02:36.286Z,91.00
2018-12-20T16:05:05.290Z,91.00
2018-12-20T16:07:33.672Z,90.90
2018-12-20T16:10:02.192Z,90.80
2018-12-20T16:12:30.539Z,90.80
2018-12-20T16:14:58.901Z,91.00
2018-12-20T16:17:27.288Z,90.90
2018-12-20T16:19:55.688Z,90.90
2018-12-20T16:22:24.102Z,90.90
2018-12-20T16:24:52.459Z,91.10
2018-12-20T16:27:20.926Z,90.90
2018-12-20T16:29:49.442Z,90.80
2018-12-20T16:32:17.871Z,90.80
2018-12-20T16:34:46.344Z,90.50
2018-12-20T16:37:14.728Z,90.40
2018-12-20T16:39:43.110Z,90.40
2018-12-20T16:42:11.530Z,90.60
2018-12-20T16:44:39.886Z,90.70
2018-12-20T16:47:08.278Z,90.70
2018-12-20T16:49:36.668Z,90.60
2018-12-20T16:52:05.067Z,90.80
2018-12-20T16:54:33.531Z,90.80
2018-12-20T16:57:01.980Z,90.70
2018-12-20T16:59:30.320Z,90.60
2018-12-20T17:01:58.682Z,90.50
2018-12-20T17:04:27.098Z,90.70
2018-12-20T17:06:55.697Z,90.70
2018-12-20T17:09:24.274Z,90.60
2018-12-20T17:11:52.687Z,90.50
2018-12-20T17:14:21.034Z,90.70
2018-12-20T17:16:49.593Z,90.40
2018-12-20T17:19:22.161Z,90.30
2018-12-20T17:21:48.479Z,90.30
2018-12-20T17:24:17.030Z,90.20
2018-12-20T17:26:45.384Z,90.50
2018-12-20T17:29:13.776Z,90.40
2018-12-20T17:31:42.111Z,90.40
2018-12-20T17:34:10.462Z,90.40
2018-12-20T17:36:38.956Z,90.60
2018-12-20T17:39:08.167Z,90.40
2018-12-20T17:41:36.571Z,90.70
2018-12-20T17:44:05.719Z,90.70
2018-12-20T17:46:34.265Z,90.60
2018-12-20T17:49:02.697Z,90.70
2018-12-20T17:51:31.218Z,90.50
2018-12-20T17:53:59.696Z,90.60
2018-12-20T17:56:28.122Z,90.60
2018-12-20T17:58:56.468Z,90.70
2018-12-20T18:01:25.086Z,90.50
2018-12-20T18:03:53.568Z,90.40
2018-12-20T18:06:21.930Z,90.50
2018-12-20T18:08:50.321Z,90.50
2018-12-20T18:11:18.719Z,90.60
2018-12-20T18:13:47.632Z,90.60
2018-12-20T18:16:16.116Z,90.60
2018-12-20T18:18:44.594Z,90.40
2018-12-20T18:21:13.030Z,90.40
2018-12-20T18:23:41.424Z,90.30
2018-12-20T18:26:10.012Z,90.30
2018-12-20T18:28:38.513Z,90.60
2018-12-20T18:31:07.066Z,90.50
2018-12-20T18:33:35.513Z,90.50
2018-12-20T18:36:04.093Z,90.50
2018-12-20T18:38:32.504Z,90.60
2018-12-20T18:41:01.186Z,90.40
2018-12-20T18:43:29.668Z,90.40
2018-12-20T18:45:58.068Z,90.60
2018-12-20T18:48:26.450Z,90.60
2018-12-20T18:50:54.934Z,90.70
2018-12-20T18:53:23.354Z,90.60
2018-12-20T18:55:51.794Z,90.60
2018-12-20T18:58:20.308Z,90.60
2018-12-20T19:00:48.668Z,90.70
2018-12-20T19:03:17.016Z,90.80
2018-12-20T19:05:45.480Z,90.70
2018-12-20T19:08:14.399Z,90.90
2018-12-20T19:10:42.940Z,90.90
2018-12-20T19:13:11.458Z,90.80
2018-12-20T19:15:39.814Z,90.80
2018-12-20T19:18:08.219Z,91.00
2018-12-20T19:20:36.612Z,90.90
2018-12-20T19:23:05.200Z,90.80
2018-12-20T19:25:35.105Z,90.70
2018-12-20T19:28:03.628Z,90.90
2018-12-20T19:30:32.029Z,91.00
2018-12-20T19:33:00.384Z,91.50
2018-12-20T19:35:28.814Z,91.10
2018-12-20T19:37:57.166Z,91.20
2018-12-20T19:40:25.534Z,91.10
2018-12-20T19:42:53.976Z,91.00
2018-12-20T19:45:22.344Z,91.00
2018-12-20T19:47:50.790Z,91.00
2018-12-20T19:50:19.198Z,90.90
2018-12-20T19:52:47.540Z,90.90
2018-12-20T19:55:15.960Z,91.10
2018-12-20T19:57:44.860Z,91.20
2018-12-20T20:00:15.245Z,91.20
2018-12-20T20:02:43.583Z,91.10
2018-12-20T20:05:11.976Z,90.90
2018-12-20T20:07:40.304Z,90.90
2018-12-20T20:10:10.797Z,91.10
2018-12-20T20:12:39.180Z,91.20
2018-12-20T20:15:16.367Z,91.30
2018-12-20T20:17:40.685Z,91.40
2018-12-20T20:20:13.804Z,91.50
2018-12-20T20:22:39.720Z,91.40
2018-12-20T20:25:08.969Z,91.40
2018-12-20T20:27:37.338Z,91.70
2018-12-20T20:30:08.931Z,91.70
2018-12-20T20:32:37.254Z,91.70
2018-12-20T20:35:06.166Z,91.60
2018-12-20T20:37:34.597Z,91.60
2018-12-20T20:40:02.972Z,91.70
2018-12-20T20:42:37.759Z,91.70
2018-12-20T20:45:07.049Z,91.70
2018-12-20T20:47:35.666Z,91.60
2018-12-20T20:50:05.167Z,91.70
2018-12-20T20:52:33.527Z,91.70
2018-12-20T20:55:01.983Z,91.60
2018-12-20T20:57:30.386Z,91.70
2018-12-20T20:59:58.752Z,91.70
2018-12-20T21:02:27.230Z,91.60
2018-12-20T21:04:55.637Z,91.60
2018-12-20T21:07:24.001Z,91.70
2018-12-20T21:09:52.434Z,91.70
2018-12-20T21:12:22.903Z,91.70
2018-12-20T21:14:52.558Z,92.00
2018-12-20T21:17:21.479Z,91.60
2018-12-20T21:19:50.323Z,91.60
2018-12-20T21:22:19.025Z,92.10
2018-12-20T21:24:47.469Z,91.80
2018-12-20T21:27:15.830Z,91.70
2018-12-20T21:29:44.191Z,91.60
2018-12-20T21:32:12.593Z,92.00
2018-12-20T21:34:40.994Z,91.60
2018-12-20T21:37:09.603Z,91.70
2018-12-20T21:39:37.961Z,91.60
2018-12-20T21:42:06.365Z,91.70
2018-12-20T21:44:34.787Z,91.70
2018-12-20T21:47:03.168Z,92.10
2018-12-20T21:49:31.603Z,91.70
2018-12-20T21:52:01.563Z,91.70
2018-12-20T21:54:30.293Z,91.70
2018-12-20T21:56:58.657Z,91.70
2018-12-20T21:59:26.989Z,91.60
2018-12-20T22:01:55.445Z,91.90
2018-12-20T22:04:23.803Z,91.50
2018-12-20T22:06:52.199Z,91.50
2018-12-20T22:09:20.645Z,91.30
2018-12-20T22:11:49.044Z,91.40
2018-12-20T22:14:17.423Z,91.30
2018-12-20T22:16:45.778Z,91.30
2018-12-20T22:19:14.287Z,91.30
2018-12-20T22:21:42.763Z,91.30
2018-12-20T22:24:11.117Z,91.30
2018-12-20T22:26:39.457Z,91.40
2018-12-20T22:29:07.879Z,91.40
2018-12-20T22:31:37.187Z,91.40
2018-12-20T22:34:06.339Z,91.50
2018-12-20T22:36:34.947Z,91.50
2018-12-20T22:39:04.813Z,91.50
2018-12-20T22:41:33.208Z,91.50
2018-12-20T22:44:01.628Z,91.50
2018-12-20T22:46:29.988Z,91.60
2018-12-20T22:48:58.354Z,91.60
2018-12-20T22:51:26.824Z,91.50
2018-12-20T22:53:55.304Z,91.60
2018-12-20T22:56:23.711Z,91.50
2018-12-20T22:58:52.070Z,91.50
2018-12-20T23:01:20.497Z,91.60
2018-12-20T23:03:48.831Z,91.50
2018-12-20T23:06:17.399Z,91.50
2018-12-20T23:08:45.745Z,91.50
2018-12-20T23:11:14.154Z,91.50
2018-12-20T23:13:42.542Z,91.50
2018-12-20T23:16:11.099Z,91.70
2018-12-20T23:18:39.543Z,91.80
2018-12-20T23:21:08.097Z,91.80
2018-12-20T23:23:36.539Z,91.70
2018-12-20T23:26:04.985Z,91.80
2018-12-20T23:28:33.331Z,91.60
2018-12-20T23:31:01.746Z,91.60
2018-12-20T23:33:30.240Z,91.60
2018-12-20T23:35:58.570Z,91.60
2018-12-20T23:38:27.182Z,91.80
2018-12-20T23:40:55.538Z,91.90
2018-12-20T23:43:24.066Z,92.30
2018-12-20T23:45:52.431Z,92.00
2018-12-20T23:48:20.775Z,92.00
2018-12-20T23:50:49.245Z,92.20
2018-12-20T23:53:17.597Z,92.00
2018-12-20T23:55:46.131Z,92.00
2018-12-20T23:58:14.525Z,92.00
